Terminal Aerodrome Forecast
Issued by NWS Wilmington, OH

Current Version | Previous Version | Graphics & Text | Print | Product List | Glossary On
Versions: 1 2 3 4 5 6 7 8 9 10 11 12 13 14 15 16 17 18 19 20 21 22 23 24 25 26 27 28
000
FTUS41 KILN 250207 AAB
TAFCVG
TAF AMD
KCVG 250207Z 2502/2606 23010KT 6SM -SHRA VCTS OVC060CB
     FM250600 28014G24KT P6SM BKN045
     FM251300 26015G25KT P6SM OVC025
     FM251800 27015G25KT P6SM OVC035
     FM260000 27012KT P6SM BKN040=

USA.gov is the U.S. government's official web portal to all federal, state and local government web resources and services.